createdAt,value
2023-04-26T00:00:31.839Z,3.80
2023-04-26T00:05:40.482Z,3.90
2023-04-26T00:10:49.060Z,5.20
2023-04-26T00:15:57.549Z,4.70
2023-04-26T00:21:05.873Z,4.90
2023-04-26T00:26:14.469Z,9.00
2023-04-26T00:31:23.606Z,7.60
2023-04-26T00:36:32.796Z,7.80
2023-04-26T00:41:41.350Z,6.00
2023-04-26T00:46:49.970Z,5.70
2023-04-26T00:51:59.063Z,5.10
2023-04-26T00:57:07.637Z,5.30
2023-04-26T01:02:18.061Z,4.00
2023-04-26T01:07:26.420Z,4.10
2023-04-26T01:12:35.307Z,2.90
2023-04-26T01:17:44.850Z,3.20
2023-04-26T01:22:54.315Z,3.50
2023-04-26T01:28:01.909Z,3.00
2023-04-26T01:33:09.407Z,2.80
2023-04-26T01:38:18.324Z,3.40
2023-04-26T01:43:26.792Z,2.70
2023-04-26T01:48:35.307Z,3.20
2023-04-26T01:53:43.589Z,2.70
2023-04-26T01:58:52.065Z,3.30
2023-04-26T02:04:00.841Z,2.90
2023-04-26T02:09:09.982Z,3.00
2023-04-26T02:14:21.663Z,2.70
2023-04-26T02:19:31.370Z,3.20
2023-04-26T02:24:42.800Z,2.90
2023-04-26T02:29:51.074Z,2.60
2023-04-26T02:34:59.883Z,3.80
2023-04-26T02:40:11.349Z,3.40
2023-04-26T02:45:20.290Z,3.80
2023-04-26T02:50:29.152Z,3.70
2023-04-26T02:55:38.933Z,3.40
2023-04-26T03:00:51.418Z,4.70
2023-04-26T03:06:00.416Z,3.90
2023-04-26T03:11:09.190Z,4.20
2023-04-26T03:16:18.194Z,3.70
2023-04-26T03:21:28.295Z,3.60
2023-04-26T03:26:36.368Z,3.70
2023-04-26T03:31:44.835Z,3.70
2023-04-26T03:36:53.461Z,3.80
2023-04-26T03:42:01.856Z,4.20
2023-04-26T03:47:10.226Z,4.10
2023-04-26T03:52:18.308Z,4.10
2023-04-26T03:57:26.950Z,4.80
2023-04-26T04:02:35.048Z,4.10
2023-04-26T04:07:43.626Z,4.60
2023-04-26T04:12:52.532Z,4.70
2023-04-26T04:18:00.952Z,4.20
2023-04-26T04:23:09.220Z,5.10
2023-04-26T04:28:18.531Z,4.90
2023-04-26T04:33:29.255Z,5.00
2023-04-26T04:38:38.826Z,5.60
2023-04-26T04:43:48.156Z,4.80
2023-04-26T04:48:55.872Z,5.40
2023-04-26T04:54:14.826Z,5.20
2023-04-26T04:59:22.393Z,5.60
2023-04-26T05:04:30.098Z,5.70
2023-04-26T05:09:39.086Z,5.60
2023-04-26T05:14:47.392Z,5.10
2023-04-26T05:19:55.685Z,4.80
2023-04-26T05:25:04.646Z,5.10
2023-04-26T05:30:14.476Z,5.70
2023-04-26T05:35:27.589Z,4.80
2023-04-26T05:40:36.057Z,4.50
2023-04-26T05:45:54.975Z,5.20
2023-04-26T05:51:03.339Z,4.30
2023-04-26T05:56:11.437Z,4.90
2023-04-26T06:01:21.390Z,4.60
2023-04-26T06:06:29.652Z,4.30
2023-04-26T06:11:37.936Z,4.40
2023-04-26T06:16:45.959Z,4.30
2023-04-26T06:21:55.804Z,3.60
2023-04-26T06:27:04.688Z,3.40
2023-04-26T06:32:13.210Z,4.00
2023-04-26T06:37:21.866Z,3.30
2023-04-26T06:42:30.502Z,2.70
2023-04-26T06:48:03.448Z,2.40
2023-04-26T06:53:12.852Z,3.10
2023-04-26T06:58:21.676Z,2.90
2023-04-26T07:03:30.129Z,3.50
2023-04-26T07:08:39.172Z,3.70
2023-04-26T07:13:48.048Z,3.10
2023-04-26T07:18:58.794Z,3.40
2023-04-26T07:24:07.168Z,2.80
2023-04-26T07:29:15.472Z,3.90
2023-04-26T07:34:24.194Z,2.80
2023-04-26T07:39:31.834Z,2.40
2023-04-26T07:44:43.555Z,2.40
2023-04-26T07:49:54.791Z,2.60
2023-04-26T07:55:03.671Z,1.90
2023-04-26T08:00:14.325Z,2.20
2023-04-26T08:05:22.928Z,2.00
2023-04-26T08:10:31.755Z,2.10
2023-04-26T08:15:41.016Z,1.80
2023-04-26T08:20:49.167Z,1.80
2023-04-26T08:25:56.725Z,1.70
2023-04-26T08:31:05.854Z,2.10
2023-04-26T08:36:14.561Z,1.50
2023-04-26T08:41:26.623Z,1.80
2023-04-26T08:46:39.071Z,1.70
2023-04-26T08:51:48.531Z,1.80
2023-04-26T08:56:57.432Z,1.70
2023-04-26T09:02:06.674Z,2.10
2023-04-26T09:07:21.754Z,1.40
2023-04-26T09:12:29.341Z,1.40
2023-04-26T09:17:38.637Z,1.20
2023-04-26T09:22:46.771Z,1.70
2023-04-26T09:27:55.109Z,1.40
2023-04-26T09:33:06.535Z,1.30
2023-04-26T09:38:15.705Z,1.50
2023-04-26T09:43:24.156Z,1.40
2023-04-26T09:48:34.790Z,1.10
2023-04-26T09:53:50.518Z,1.80
2023-04-26T09:59:04.606Z,1.40
2023-04-26T10:04:12.696Z,1.30
2023-04-26T10:09:20.277Z,1.20
2023-04-26T10:14:28.458Z,1.70
2023-04-26T10:19:37.700Z,1.30
2023-04-26T10:24:47.551Z,1.50
2023-04-26T10:30:15.022Z,1.60
2023-04-26T10:35:23.861Z,1.50
2023-04-26T10:40:33.278Z,1.50
2023-04-26T10:45:41.700Z,1.60
2023-04-26T10:51:13.057Z,1.50
2023-04-26T10:56:55.916Z,1.80
2023-04-26T11:02:04.389Z,1.20
2023-04-26T11:07:12.018Z,1.30
2023-04-26T11:12:20.257Z,1.20
2023-04-26T11:17:28.374Z,1.00
2023-04-26T11:22:42.399Z,1.60
2023-04-26T11:27:50.589Z,1.50
2023-04-26T11:32:58.480Z,1.40
2023-04-26T11:38:08.464Z,1.40
2023-04-26T11:43:17.601Z,1.40
2023-04-26T11:48:26.896Z,1.70
2023-04-26T11:53:42.309Z,1.40
2023-04-26T11:58:51.486Z,1.20
2023-04-26T12:04:01.235Z,1.30
2023-04-26T12:09:11.687Z,1.40
2023-04-26T12:14:21.436Z,1.10
2023-04-26T12:19:29.522Z,0.90
2023-04-26T12:24:38.961Z,1.40
2023-04-26T12:29:46.976Z,1.60
2023-04-26T12:34:55.484Z,1.20
2023-04-26T12:40:04.020Z,1.50
2023-04-26T12:45:13.544Z,1.60
2023-04-26T12:50:22.270Z,1.80
2023-04-26T12:55:32.607Z,1.80
2023-04-26T13:00:41.289Z,1.80
2023-04-26T13:05:51.205Z,1.50
2023-04-26T13:10:59.595Z,1.40
2023-04-26T13:16:09.506Z,1.60
2023-04-26T13:21:18.978Z,1.50
2023-04-26T13:26:28.075Z,1.40
2023-04-26T13:31:37.214Z,1.70
2023-04-26T13:36:45.689Z,1.10
2023-04-26T13:41:54.373Z,1.20
2023-04-26T13:47:02.760Z,1.70
2023-04-26T13:52:10.444Z,1.60
2023-04-26T13:57:19.947Z,1.70
2023-04-26T14:02:27.831Z,1.50
2023-04-26T14:07:36.334Z,1.50
2023-04-26T14:12:47.672Z,1.40
2023-04-26T14:17:55.240Z,1.60
2023-04-26T14:23:03.377Z,1.30
2023-04-26T14:28:11.969Z,1.90
2023-04-26T14:33:19.602Z,2.20
2023-04-26T14:38:27.206Z,1.60
2023-04-26T14:43:35.890Z,1.90
2023-04-26T14:48:45.414Z,1.50
2023-04-26T14:53:54.120Z,1.80
2023-04-26T14:59:03.847Z,1.90
2023-04-26T15:04:12.286Z,1.60
2023-04-26T15:09:21.228Z,1.50
2023-04-26T15:14:29.495Z,1.70
2023-04-26T15:19:38.101Z,1.80
2023-04-26T15:24:45.672Z,1.90
2023-04-26T15:29:55.756Z,1.80
2023-04-26T15:35:05.824Z,2.00
2023-04-26T15:40:16.693Z,2.20
2023-04-26T15:45:24.959Z,1.90
2023-04-26T15:50:33.255Z,2.00
2023-04-26T15:55:41.950Z,2.00
2023-04-26T16:00:50.233Z,2.70
2023-04-26T16:05:58.976Z,2.30
2023-04-26T16:11:07.919Z,2.60
2023-04-26T16:16:16.397Z,3.70
2023-04-26T16:21:27.185Z,2.20
2023-04-26T16:26:36.297Z,2.30
2023-04-26T16:31:45.180Z,2.50
2023-04-26T16:36:53.528Z,2.20
2023-04-26T16:42:02.687Z,2.90
2023-04-26T16:47:10.202Z,2.00
2023-04-26T16:52:17.562Z,2.00
2023-04-26T16:57:25.793Z,2.10
2023-04-26T17:02:34.920Z,3.00
2023-04-26T17:07:43.287Z,3.50
2023-04-26T17:12:51.816Z,2.60
2023-04-26T17:17:59.340Z,2.10
2023-04-26T17:23:09.001Z,2.40
2023-04-26T17:28:17.525Z,2.00
2023-04-26T17:33:26.679Z,2.00
2023-04-26T17:38:34.250Z,1.80
2023-04-26T17:43:42.742Z,1.90
2023-04-26T17:48:51.547Z,1.70
2023-04-26T17:53:59.841Z,2.20
2023-04-26T17:59:08.308Z,1.50
2023-04-26T18:04:16.897Z,1.50
2023-04-26T18:09:26.220Z,1.60
2023-04-26T18:14:33.845Z,1.60
2023-04-26T18:19:41.754Z,1.50
2023-04-26T18:24:49.237Z,1.40
2023-04-26T18:29:56.701Z,1.10
2023-04-26T18:35:06.728Z,1.40
2023-04-26T18:40:16.017Z,1.70
2023-04-26T18:45:24.957Z,1.70
2023-04-26T18:50:33.901Z,1.50
2023-04-26T18:55:42.371Z,8.70
2023-04-26T19:00:51.405Z,5.50
2023-04-26T19:06:01.368Z,5.50
2023-04-26T19:11:09.831Z,6.70
2023-04-26T19:16:18.205Z,7.90
2023-04-26T19:21:26.269Z,7.70
2023-04-26T19:26:34.856Z,6.90
2023-04-26T19:31:43.580Z,5.30
2023-04-26T19:36:51.325Z,3.60
2023-04-26T19:42:01.734Z,2.90
2023-04-26T19:47:10.495Z,3.10
2023-04-26T19:52:19.772Z,2.90
2023-04-26T19:57:28.315Z,3.20
2023-04-26T20:02:36.018Z,3.30
2023-04-26T20:07:44.526Z,6.10
2023-04-26T20:12:52.214Z,5.30
2023-04-26T20:17:59.578Z,8.30
2023-04-26T20:23:07.897Z,9.00
2023-04-26T20:28:15.205Z,8.70
2023-04-26T20:33:23.733Z,8.70
2023-04-26T20:38:32.455Z,6.90
2023-04-26T20:43:40.800Z,4.80
2023-04-26T20:48:49.490Z,4.10
2023-04-26T20:53:57.692Z,3.60
2023-04-26T20:59:07.806Z,2.60
2023-04-26T21:04:16.085Z,2.80
2023-04-26T21:09:24.561Z,2.50
2023-04-26T21:14:32.995Z,2.30
2023-04-26T21:19:41.288Z,2.40
2023-04-26T21:24:52.596Z,2.20
2023-04-26T21:30:00.957Z,2.20
2023-04-26T21:35:11.407Z,2.30
2023-04-26T21:40:20.159Z,1.90
2023-04-26T21:45:28.437Z,2.60
2023-04-26T21:50:36.979Z,2.70
2023-04-26T21:55:54.250Z,2.40
2023-04-26T22:01:11.104Z,2.10
2023-04-26T22:06:19.616Z,2.30
2023-04-26T22:11:28.520Z,2.60
2023-04-26T22:16:37.157Z,2.10
2023-04-26T22:21:45.736Z,2.50
2023-04-26T22:26:53.313Z,2.80
2023-04-26T22:32:01.927Z,2.20
2023-04-26T22:37:20.323Z,2.80
2023-04-26T22:42:30.583Z,2.80
2023-04-26T22:47:38.882Z,3.00
2023-04-26T22:52:46.599Z,2.90
2023-04-26T22:57:54.866Z,3.10
2023-04-26T23:03:03.489Z,2.80
2023-04-26T23:08:11.968Z,3.00
2023-04-26T23:13:20.687Z,2.70
2023-04-26T23:18:29.323Z,2.90
2023-04-26T23:23:38.077Z,2.40
2023-04-26T23:28:46.231Z,2.70
2023-04-26T23:33:54.651Z,2.80
2023-04-26T23:39:02.963Z,2.80
2023-04-26T23:44:11.914Z,2.90
2023-04-26T23:49:20.821Z,2.40
2023-04-26T23:54:29.535Z,3.10
2023-04-26T23:59:36.956Z,2.90
